Crescendo — FGE4973 — position and weather

sailwx.info

Track history (hours):
 
Tides and Currents Weather Stations Pressure Air Temp Water Temp Dewpoint Dewpoint Depression Visibility Wind Speed Wind Dir Waves Ship Positions

Crescendo

Last reported at 2018-Jun-20 10:30 UTC. Time now 2018-Jun-24 09:16 UTC.
Position N 47°38' W 002°57'.

Type: Sailing vessel. MMSI: 227029580.

Date/timePositionNaut miles runAvg speedWind from/ knotsBaromVisibWave heightAir tempDewpointWater temp
2018-Jun-20 10:30N 47°38' W 002°57'1 1.4
2018-Jun-20 10:00N 47°38' W 002°58'2 4.4
2018-Jun-20 09:30N 47°36' W 002°57'2 3.2
2018-Jun-20 08:57N 47°34' W 002°56'11 0.6
2018-Jun-19 15:49N 47°29' W 003°10'2 6.4
2018-Jun-19 15:29N 47°30' W 003°12'3 6.5
2018-Jun-19 15:00N 47°32' W 003°16'3 6.1
2018-Jun-19 14:30N 47°34' W 003°19'3 6.0
2018-Jun-19 14:00N 47°36' W 003°22'4 1.3
2018-Jun-19 10:58N 47°39' W 003°27'  
Track history (hours):
 
Tides and Currents Weather Stations Pressure Air Temp Water Temp Dewpoint Dewpoint Depression Visibility Wind Speed Wind Dir Waves Ship Positions

Crescendo

Last reported at 2018-Jun-20 10:30 UTC. Time now 2018-Jun-24 09:16 UTC.
Position N 47°38' W 002°57'.

Type: Sailing vessel. MMSI: 227029580.

Date/timePositionNaut miles runAvg speedWind from/ knotsBaromVisibWave heightAir tempDewpointWater temp
2018-Jun-20 10:30N 47°38' W 002°57'1 1.4
2018-Jun-20 10:00N 47°38' W 002°58'2 4.4
2018-Jun-20 09:30N 47°36' W 002°57'2 3.2
2018-Jun-20 08:57N 47°34' W 002°56'11 0.6
2018-Jun-19 15:49N 47°29' W 003°10'2 6.4
2018-Jun-19 15:29N 47°30' W 003°12'3 6.5
2018-Jun-19 15:00N 47°32' W 003°16'3 6.1
2018-Jun-19 14:30N 47°34' W 003°19'3 6.0
2018-Jun-19 14:00N 47°36' W 003°22'4 1.3
2018-Jun-19 10:58N 47°39' W 003°27'  

Dump ship's entire track history